createdAt,value
2018-01-11T00:00:41.473Z,1004.97
2018-01-11T00:01:41.469Z,1004.97
2018-01-11T00:02:41.466Z,1004.94
2018-01-11T00:03:41.464Z,1004.95
2018-01-11T00:04:41.451Z,1004.98
2018-01-11T00:05:41.442Z,1004.99
2018-01-11T00:06:41.442Z,1004.99
2018-01-11T00:07:41.429Z,1004.98
2018-01-11T00:08:41.426Z,1005.04
2018-01-11T00:09:41.419Z,1005.02
2018-01-11T00:10:41.411Z,1005.00
2018-01-11T00:11:41.404Z,1005.01
2018-01-11T00:12:41.392Z,1004.99
2018-01-11T00:13:41.394Z,1004.96
2018-01-11T00:14:41.376Z,1004.98
2018-01-11T00:15:41.379Z,1004.98
2018-01-11T00:16:41.369Z,1004.95
2018-01-11T00:17:41.361Z,1004.98
2018-01-11T00:18:41.354Z,1004.94
2018-01-11T00:19:41.346Z,1004.97
2018-01-11T00:20:41.337Z,1004.96
2018-01-11T00:21:41.337Z,1004.93
2018-01-11T00:22:41.323Z,1004.93
2018-01-11T00:23:41.316Z,1004.96
2018-01-11T00:24:41.298Z,1004.92
2018-01-11T00:25:41.297Z,1004.94
2018-01-11T00:26:41.295Z,1004.94
2018-01-11T00:27:41.278Z,1004.96
2018-01-11T00:28:41.278Z,1004.92
2018-01-11T00:29:41.272Z,1004.85
2018-01-11T00:30:41.269Z,1004.91
2018-01-11T00:31:41.261Z,1004.91
2018-01-11T00:32:41.256Z,1004.94
2018-01-11T00:33:41.247Z,1004.92
2018-01-11T00:34:41.238Z,1004.96
2018-01-11T00:35:41.232Z,1004.97
2018-01-11T00:36:41.224Z,1004.96
2018-01-11T00:37:41.217Z,1004.97
2018-01-11T00:38:41.730Z,1004.94
2018-01-11T00:39:41.204Z,1004.94
2018-01-11T00:40:41.194Z,1004.94
2018-01-11T00:41:41.196Z,1004.94
2018-01-11T00:42:41.178Z,1004.95
2018-01-11T00:43:41.168Z,1004.98
2018-01-11T00:44:41.158Z,1004.96
2018-01-11T00:45:41.160Z,1004.98
2018-01-11T00:46:41.152Z,1004.99
2018-01-11T00:47:41.139Z,1004.95
2018-01-11T00:48:41.139Z,1005.00
2018-01-11T00:49:41.134Z,1005.01
2018-01-11T00:50:41.124Z,1004.99
2018-01-11T00:51:41.117Z,1005.01
2018-01-11T00:52:41.124Z,1005.01
2018-01-11T00:53:41.743Z,1004.99
2018-01-11T00:54:41.092Z,1005.00
2018-01-11T00:55:41.087Z,1005.00
2018-01-11T00:56:41.089Z,1004.99
2018-01-11T00:57:41.076Z,1005.01
2018-01-11T00:58:41.066Z,1005.02
2018-01-11T00:59:41.057Z,1005.02
2018-01-11T01:00:41.051Z,1005.05
2018-01-11T01:01:41.044Z,1005.03
2018-01-11T01:02:41.040Z,1005.04
2018-01-11T01:03:41.027Z,1005.01
2018-01-11T01:04:41.023Z,1004.99
2018-01-11T01:05:41.018Z,1005.00
2018-01-11T01:06:41.007Z,1005.02
2018-01-11T01:07:40.999Z,1005.06
2018-01-11T01:08:40.996Z,1005.10
2018-01-11T01:09:40.988Z,1005.05
2018-01-11T01:10:40.978Z,1005.08
2018-01-11T01:11:40.973Z,1005.06
2018-01-11T01:12:40.965Z,1005.08
2018-01-11T01:13:40.949Z,1005.12
2018-01-11T01:14:40.949Z,1005.14
2018-01-11T01:15:40.938Z,1005.13
2018-01-11T01:16:40.935Z,1005.10
2018-01-11T01:17:40.926Z,1005.13
2018-01-11T01:18:40.925Z,1005.18
2018-01-11T01:19:40.916Z,1005.17
2018-01-11T01:20:40.902Z,1005.20
2018-01-11T01:21:40.911Z,1005.21
2018-01-11T01:22:40.893Z,1005.25
2018-01-11T01:23:40.884Z,1005.21
2018-01-11T01:24:40.874Z,1005.22
2018-01-11T01:25:40.878Z,1005.22
2018-01-11T01:26:40.868Z,1005.23
2018-01-11T01:27:40.857Z,1005.24
2018-01-11T01:28:40.846Z,1005.20
2018-01-11T01:29:40.846Z,1005.28
2018-01-11T01:30:40.847Z,1005.26
2018-01-11T01:31:40.845Z,1005.28
2018-01-11T01:32:40.840Z,1005.29
2018-01-11T01:33:40.815Z,1005.30
2018-01-11T01:34:40.816Z,1005.30
2018-01-11T01:35:40.798Z,1005.25
2018-01-11T01:36:40.796Z,1005.28
2018-01-11T01:37:40.785Z,1005.28
2018-01-11T01:38:40.791Z,1005.27
2018-01-11T01:39:40.806Z,1005.30
2018-01-11T01:40:40.761Z,1005.27
2018-01-11T01:41:40.754Z,1005.24
2018-01-11T01:42:40.751Z,1005.26
2018-01-11T01:43:40.749Z,1005.27
2018-01-11T01:44:40.752Z,1005.29
2018-01-11T01:45:40.734Z,1005.28
2018-01-11T01:46:40.723Z,1005.30
2018-01-11T01:47:40.716Z,1005.33
2018-01-11T01:48:40.713Z,1005.33
2018-01-11T01:49:40.702Z,1005.32
2018-01-11T01:50:40.684Z,1005.34
2018-01-11T01:51:41.256Z,1005.34
2018-01-11T01:52:40.674Z,1005.35
2018-01-11T01:53:40.672Z,1005.36
2018-01-11T01:54:40.658Z,1005.37
2018-01-11T01:55:40.655Z,1005.39
2018-01-11T01:56:40.646Z,1005.38
2018-01-11T01:57:40.644Z,1005.41
2018-01-11T01:58:40.639Z,1005.39
2018-01-11T01:59:40.632Z,1005.39
2018-01-11T02:00:40.624Z,1005.39
2018-01-11T02:01:40.612Z,1005.39
2018-01-11T02:02:40.612Z,1005.38
2018-01-11T02:03:40.623Z,1005.38
2018-01-11T02:04:40.595Z,1005.38
2018-01-11T02:05:40.592Z,1005.40
2018-01-11T02:06:40.576Z,1005.40
2018-01-11T02:07:40.562Z,1005.41
2018-01-11T02:08:40.560Z,1005.42
2018-01-11T02:09:40.545Z,1005.45
2018-01-11T02:10:40.548Z,1005.42
2018-01-11T02:11:40.541Z,1005.42
2018-01-11T02:12:40.533Z,1005.45
2018-01-11T02:13:40.528Z,1005.45
2018-01-11T02:14:40.514Z,1005.42
2018-01-11T02:15:40.506Z,1005.44
2018-01-11T02:16:40.509Z,1005.38
2018-01-11T02:17:40.498Z,1005.42
2018-01-11T02:18:40.491Z,1005.42
2018-01-11T02:19:40.485Z,1005.44
2018-01-11T02:20:40.469Z,1005.42
2018-01-11T02:21:40.473Z,1005.44
2018-01-11T02:22:40.457Z,1005.47
2018-01-11T02:23:40.450Z,1005.47
2018-01-11T02:24:40.442Z,1005.46
2018-01-11T02:25:41.269Z,1005.52
2018-01-11T02:26:40.436Z,1005.45
2018-01-11T02:27:40.424Z,1005.48
2018-01-11T02:28:40.417Z,1005.45
2018-01-11T02:29:40.411Z,1005.50
2018-01-11T02:30:40.401Z,1005.46
2018-01-11T02:31:40.391Z,1005.44
2018-01-11T02:32:40.384Z,1005.44
2018-01-11T02:33:40.379Z,1005.45
2018-01-11T02:34:40.374Z,1005.43
2018-01-11T02:35:40.364Z,1005.48
2018-01-11T02:36:40.353Z,1005.46
2018-01-11T02:37:40.346Z,1005.47
2018-01-11T02:38:40.346Z,1005.51
2018-01-11T02:39:40.340Z,1005.50
2018-01-11T02:40:40.328Z,1005.52
2018-01-11T02:41:40.329Z,1005.53
2018-01-11T02:42:40.316Z,1005.51
2018-01-11T02:43:40.305Z,1005.51
2018-01-11T02:44:40.298Z,1005.53
2018-01-11T02:45:40.292Z,1005.55
2018-01-11T02:46:40.284Z,1005.55
2018-01-11T02:47:40.282Z,1005.57
2018-01-11T02:48:40.272Z,1005.60
2018-01-11T02:49:40.265Z,1005.59
2018-01-11T02:50:40.253Z,1005.60
2018-01-11T02:51:40.246Z,1005.63
2018-01-11T02:52:40.241Z,1005.62
2018-01-11T02:53:40.238Z,1005.64
2018-01-11T02:54:40.785Z,1005.63
2018-01-11T02:55:40.222Z,1005.65
2018-01-11T02:56:40.215Z,1005.66
2018-01-11T02:57:40.218Z,1005.69
2018-01-11T02:58:40.199Z,1005.69
2018-01-11T02:59:40.195Z,1005.66
2018-01-11T03:00:40.189Z,1005.63
2018-01-11T03:01:40.191Z,1005.70
2018-01-11T03:02:40.168Z,1005.66
2018-01-11T03:03:40.162Z,1005.65
2018-01-11T03:04:40.158Z,1005.68
2018-01-11T03:05:40.147Z,1005.66
2018-01-11T03:06:40.136Z,1005.67
2018-01-11T03:07:40.132Z,1005.68
2018-01-11T03:08:40.124Z,1005.69
2018-01-11T03:09:40.120Z,1005.68
2018-01-11T03:10:40.111Z,1005.73
2018-01-11T03:11:40.101Z,1005.73
2018-01-11T03:12:40.538Z,1005.73
2018-01-11T03:13:40.137Z,1005.72
2018-01-11T03:14:40.088Z,1005.73
2018-01-11T03:15:40.071Z,1005.73
2018-01-11T03:16:40.078Z,1005.74
2018-01-11T03:17:40.059Z,1005.69
2018-01-11T03:18:40.052Z,1005.74
2018-01-11T03:19:40.042Z,1005.74
2018-01-11T03:20:40.040Z,1005.74
2018-01-11T03:21:40.028Z,1005.75
2018-01-11T03:22:40.021Z,1005.81
2018-01-11T03:23:40.013Z,1005.78
2018-01-11T03:24:40.006Z,1005.81
2018-01-11T03:25:39.999Z,1005.83
2018-01-11T03:26:39.993Z,1005.86
2018-01-11T03:27:39.989Z,1005.84
2018-01-11T03:28:39.982Z,1005.87
2018-01-11T03:29:39.974Z,1005.85
2018-01-11T03:30:39.967Z,1005.87
2018-01-11T03:31:39.956Z,1005.89
2018-01-11T03:32:39.947Z,1005.87
2018-01-11T03:33:39.943Z,1005.89
2018-01-11T03:34:39.932Z,1005.88
2018-01-11T03:35:39.926Z,1005.86
2018-01-11T03:36:39.921Z,1005.86
2018-01-11T03:37:39.910Z,1005.86
2018-01-11T03:38:39.904Z,1005.89
2018-01-11T03:39:39.890Z,1005.87
2018-01-11T03:40:39.880Z,1005.87
2018-01-11T03:41:39.888Z,1005.86
2018-01-11T03:42:39.874Z,1005.82
2018-01-11T03:43:39.870Z,1005.79
2018-01-11T03:44:39.861Z,1005.79
2018-01-11T03:45:39.848Z,1005.82
2018-01-11T03:46:39.851Z,1005.78
2018-01-11T03:47:39.837Z,1005.74
2018-01-11T03:48:39.839Z,1005.81
2018-01-11T03:49:39.828Z,1005.82
2018-01-11T03:50:39.818Z,1005.80
2018-01-11T03:51:39.806Z,1005.82
2018-01-11T03:52:39.799Z,1005.81
2018-01-11T03:53:39.792Z,1005.82
2018-01-11T03:54:39.783Z,1005.81
2018-01-11T03:55:39.771Z,1005.81
2018-01-11T03:56:39.770Z,1005.82
2018-01-11T03:57:39.764Z,1005.85
2018-01-11T03:58:39.772Z,1005.80
2018-01-11T03:59:39.790Z,1005.83
2018-01-11T04:00:39.735Z,1005.86
2018-01-11T04:01:39.737Z,1005.86
2018-01-11T04:02:39.723Z,1005.84
2018-01-11T04:03:39.722Z,1005.87
2018-01-11T04:04:39.713Z,1005.85
2018-01-11T04:05:39.707Z,1005.85
2018-01-11T04:06:39.696Z,1005.90
2018-01-11T04:07:39.684Z,1005.92
2018-01-11T04:08:39.682Z,1005.94
2018-01-11T04:09:39.672Z,1005.91
2018-01-11T04:10:39.668Z,1005.92
2018-01-11T04:11:39.663Z,1005.94
2018-01-11T04:12:39.652Z,1005.96
2018-01-11T04:13:39.640Z,1005.93
2018-01-11T04:14:39.637Z,1005.94
2018-01-11T04:15:39.634Z,1005.97
2018-01-11T04:16:39.627Z,1005.96
2018-01-11T04:17:39.616Z,1005.94
2018-01-11T04:18:39.654Z,1005.98
2018-01-11T04:19:39.597Z,1006.00
2018-01-11T04:20:39.597Z,1006.02
2018-01-11T04:21:39.584Z,1005.99
2018-01-11T04:22:39.570Z,1005.99
2018-01-11T04:23:39.568Z,1006.03
2018-01-11T04:24:39.598Z,1006.01
2018-01-11T04:25:39.553Z,1005.98
2018-01-11T04:26:39.549Z,1005.99
2018-01-11T04:27:39.531Z,1006.04
2018-01-11T04:28:39.528Z,1006.02
2018-01-11T04:29:39.523Z,1006.01
2018-01-11T04:30:39.517Z,1006.05
2018-01-11T04:31:39.512Z,1006.07
2018-01-11T04:32:39.501Z,1006.04
2018-01-11T04:33:39.492Z,1006.07
2018-01-11T04:34:39.478Z,1006.05
2018-01-11T04:35:39.469Z,1006.08
2018-01-11T04:36:39.460Z,1006.09
2018-01-11T04:37:39.456Z,1006.08
2018-01-11T04:38:39.451Z,1006.07
2018-01-11T04:39:39.443Z,1006.09
2018-01-11T04:40:39.434Z,1006.16
2018-01-11T04:41:39.435Z,1006.16
2018-01-11T04:42:39.419Z,1006.15
2018-01-11T04:43:39.408Z,1006.15
2018-01-11T04:44:39.400Z,1006.18
2018-01-11T04:45:39.394Z,1006.22
2018-01-11T04:46:40.320Z,1006.19
2018-01-11T04:47:39.380Z,1006.21
2018-01-11T04:48:39.371Z,1006.18
2018-01-11T04:49:39.362Z,1006.21
2018-01-11T04:50:39.354Z,1006.19
2018-01-11T04:51:39.353Z,1006.20
2018-01-11T04:52:39.347Z,1006.23
2018-01-11T04:53:39.331Z,1006.25
2018-01-11T04:54:39.325Z,1006.25
2018-01-11T04:55:39.318Z,1006.26
2018-01-11T04:56:39.310Z,1006.26
2018-01-11T04:57:39.304Z,1006.31
2018-01-11T04:58:39.299Z,1006.31
2018-01-11T04:59:39.286Z,1006.31
2018-01-11T05:00:39.279Z,1006.30
2018-01-11T05:01:39.293Z,1006.30
2018-01-11T05:02:39.261Z,1006.31
2018-01-11T05:03:39.257Z,1006.33
2018-01-11T05:04:39.245Z,1006.37
2018-01-11T05:05:39.239Z,1006.35
2018-01-11T05:06:39.227Z,1006.38
2018-01-11T05:07:39.222Z,1006.37
2018-01-11T05:08:39.211Z,1006.35
2018-01-11T05:09:39.206Z,1006.36
2018-01-11T05:10:39.200Z,1006.40
2018-01-11T05:11:39.192Z,1006.44
2018-01-11T05:12:39.186Z,1006.43
2018-01-11T05:13:39.171Z,1006.44
2018-01-11T05:14:39.172Z,1006.46
2018-01-11T05:15:39.157Z,1006.49
2018-01-11T05:16:39.157Z,1006.51
2018-01-11T05:17:39.839Z,1006.52
2018-01-11T05:18:39.130Z,1006.51
2018-01-11T05:19:39.121Z,1006.58
2018-01-11T05:20:39.125Z,1006.56
2018-01-11T05:21:39.135Z,1006.57
2018-01-11T05:22:39.106Z,1006.61
2018-01-11T05:23:39.088Z,1006.63
2018-01-11T05:24:39.085Z,1006.61
2018-01-11T05:25:39.092Z,1006.64
2018-01-11T05:26:39.080Z,1006.65
2018-01-11T05:27:39.066Z,1006.66
2018-01-11T05:28:39.058Z,1006.66
2018-01-11T05:29:39.053Z,1006.72
2018-01-11T05:30:39.047Z,1006.68
2018-01-11T05:31:39.044Z,1006.68
2018-01-11T05:32:39.031Z,1006.69
2018-01-11T05:33:39.023Z,1006.70
2018-01-11T05:34:39.018Z,1006.71
2018-01-11T05:35:39.004Z,1006.73
2018-01-11T05:36:38.996Z,1006.73
2018-01-11T05:37:38.985Z,1006.73
2018-01-11T05:38:38.994Z,1006.72
2018-01-11T05:39:38.988Z,1006.74
2018-01-11T05:40:38.968Z,1006.73
2018-01-11T05:41:38.955Z,1006.75
2018-01-11T05:42:38.950Z,1006.74
2018-01-11T05:43:38.955Z,1006.70
2018-01-11T05:44:38.934Z,1006.75
2018-01-11T05:45:38.937Z,1006.75
2018-01-11T05:46:38.937Z,1006.74
2018-01-11T05:47:38.913Z,1006.76
2018-01-11T05:48:38.897Z,1006.72
2018-01-11T05:49:38.888Z,1006.78
2018-01-11T05:50:38.894Z,1006.76
2018-01-11T05:51:38.901Z,1006.78
2018-01-11T05:52:38.869Z,1006.80
2018-01-11T05:53:40.709Z,1006.79
2018-01-11T05:54:39.570Z,1006.77
2018-01-11T05:55:38.854Z,1006.82
2018-01-11T05:56:38.849Z,1006.79
2018-01-11T05:57:38.834Z,1006.82
2018-01-11T05:58:38.846Z,1006.82
2018-01-11T05:59:38.828Z,1006.85
2018-01-11T06:00:38.812Z,1006.88
2018-01-11T06:01:38.841Z,1006.86
2018-01-11T06:02:38.805Z,1006.87
2018-01-11T06:03:38.783Z,1006.87
2018-01-11T06:04:38.779Z,1006.89
2018-01-11T06:05:38.784Z,1006.90
2018-01-11T06:06:38.783Z,1006.91
2018-01-11T06:07:38.770Z,1006.95
2018-01-11T06:08:38.764Z,1006.94
2018-01-11T06:09:38.752Z,1006.97
2018-01-11T06:10:38.738Z,1006.97
2018-01-11T06:11:38.733Z,1006.93
2018-01-11T06:12:38.738Z,1006.93
2018-01-11T06:13:38.717Z,1006.97
2018-01-11T06:14:38.703Z,1006.95
2018-01-11T06:15:38.692Z,1006.93
2018-01-11T06:16:38.689Z,1006.96
2018-01-11T06:17:38.699Z,1006.95
2018-01-11T06:18:38.667Z,1006.94
2018-01-11T06:19:38.698Z,1006.99
2018-01-11T06:20:38.666Z,1007.00
2018-01-11T06:21:38.647Z,1006.99
2018-01-11T06:22:38.663Z,1007.05
2018-01-11T06:23:38.641Z,1007.05
2018-01-11T06:24:38.635Z,1007.06
2018-01-11T06:25:38.649Z,1007.07
2018-01-11T06:26:38.641Z,1007.12
2018-01-11T06:27:38.608Z,1007.08
2018-01-11T06:28:38.598Z,1007.17
2018-01-11T06:29:38.597Z,1007.16
2018-01-11T06:30:38.581Z,1007.18
2018-01-11T06:31:38.582Z,1007.20
2018-01-11T06:32:38.578Z,1007.20
2018-01-11T06:33:38.559Z,1007.20
2018-01-11T06:34:39.364Z,1007.24
2018-01-11T06:35:38.544Z,1007.24
2018-01-11T06:36:38.547Z,1007.23
2018-01-11T06:37:38.545Z,1007.29
2018-01-11T06:38:38.525Z,1007.27
2018-01-11T06:39:38.521Z,1007.26
2018-01-11T06:40:38.523Z,1007.27
2018-01-11T06:41:38.508Z,1007.27
2018-01-11T06:42:38.490Z,1007.26
2018-01-11T06:43:39.366Z,1007.33
2018-01-11T06:44:38.487Z,1007.35
2018-01-11T06:45:38.489Z,1007.38
2018-01-11T06:46:38.466Z,1007.44
2018-01-11T06:47:38.456Z,1007.46
2018-01-11T06:48:38.450Z,1007.43
2018-01-11T06:49:38.448Z,1007.47
2018-01-11T06:50:38.443Z,1007.48
2018-01-11T06:51:38.468Z,1007.49
2018-01-11T06:52:41.367Z,1007.48
2018-01-11T06:53:39.392Z,1007.51
2018-01-11T06:54:38.408Z,1007.54
2018-01-11T06:55:38.395Z,1007.56
2018-01-11T06:56:38.381Z,1007.51
2018-01-11T06:57:38.400Z,1007.52
2018-01-11T06:58:38.373Z,1007.53
2018-01-11T06:59:38.364Z,1007.56
2018-01-11T07:00:38.354Z,1007.61
2018-01-11T07:01:38.353Z,1007.60
2018-01-11T07:02:38.357Z,1007.58
2018-01-11T07:03:38.348Z,1007.59
2018-01-11T07:04:38.325Z,1007.60
2018-01-11T07:05:38.366Z,1007.61
2018-01-11T07:06:38.331Z,1007.63
2018-01-11T07:07:38.308Z,1007.64
2018-01-11T07:08:38.306Z,1007.66
2018-01-11T07:09:38.292Z,1007.67
2018-01-11T07:10:38.276Z,1007.67
2018-01-11T07:11:38.269Z,1007.71
2018-01-11T07:12:38.278Z,1007.70
2018-01-11T07:13:38.269Z,1007.72
2018-01-11T07:14:38.253Z,1007.71
2018-01-11T07:15:38.242Z,1007.68
2018-01-11T07:16:38.240Z,1007.70
2018-01-11T07:17:38.225Z,1007.74
2018-01-11T07:18:38.219Z,1007.76
2018-01-11T07:19:38.228Z,1007.72
2018-01-11T07:20:38.205Z,1007.74
2018-01-11T07:21:38.204Z,1007.79
2018-01-11T07:22:38.205Z,1007.75
2018-01-11T07:23:38.188Z,1007.81
2018-01-11T07:24:38.191Z,1007.80
2018-01-11T07:25:38.177Z,1007.81
2018-01-11T07:26:38.165Z,1007.80
2018-01-11T07:27:38.147Z,1007.87
2018-01-11T07:28:38.143Z,1007.87
2018-01-11T07:29:38.141Z,1007.83
2018-01-11T07:30:38.130Z,1007.89
2018-01-11T07:31:38.127Z,1007.89
2018-01-11T07:32:38.113Z,1007.94
2018-01-11T07:33:38.111Z,1007.92
2018-01-11T07:34:38.106Z,1007.92
2018-01-11T07:35:38.095Z,1007.91
2018-01-11T07:36:38.090Z,1007.95
2018-01-11T07:37:38.084Z,1007.95
2018-01-11T07:38:38.075Z,1007.95
2018-01-11T07:39:38.066Z,1007.95
2018-01-11T07:40:38.059Z,1007.98
2018-01-11T07:41:38.071Z,1007.98
2018-01-11T07:42:38.053Z,1007.98
2018-01-11T07:43:38.030Z,1008.03
2018-01-11T07:44:38.023Z,1008.00
2018-01-11T07:45:38.020Z,1008.02
2018-01-11T07:46:38.013Z,1008.10
2018-01-11T07:47:38.008Z,1008.10
2018-01-11T07:48:37.996Z,1008.12
2018-01-11T07:49:38.007Z,1008.11
2018-01-11T07:50:37.980Z,1008.20
2018-01-11T07:51:37.964Z,1008.20
2018-01-11T07:52:37.963Z,1008.22
2018-01-11T07:53:37.953Z,1008.20
2018-01-11T07:54:37.943Z,1008.25
2018-01-11T07:55:37.933Z,1008.27
2018-01-11T07:56:37.936Z,1008.29
2018-01-11T07:57:37.930Z,1008.30
2018-01-11T07:58:37.915Z,1008.28
2018-01-11T07:59:37.908Z,1008.31
2018-01-11T08:00:37.914Z,1008.31
2018-01-11T08:01:37.908Z,1008.34
2018-01-11T08:02:37.896Z,1008.34
2018-01-11T08:03:37.880Z,1008.37
2018-01-11T08:04:37.889Z,1008.40
2018-01-11T08:05:37.866Z,1008.39
2018-01-11T08:06:37.867Z,1008.41
2018-01-11T08:07:37.854Z,1008.40
2018-01-11T08:08:37.858Z,1008.43
2018-01-11T08:09:37.833Z,1008.41
2018-01-11T08:10:37.828Z,1008.43
2018-01-11T08:11:37.823Z,1008.47
2018-01-11T08:12:37.836Z,1008.43
2018-01-11T08:13:37.811Z,1008.45
2018-01-11T08:14:37.827Z,1008.49
2018-01-11T08:15:37.792Z,1008.49
2018-01-11T08:16:37.796Z,1008.51
2018-01-11T08:17:37.801Z,1008.52
2018-01-11T08:18:37.781Z,1008.51
2018-01-11T08:19:37.757Z,1008.49
2018-01-11T08:20:37.759Z,1008.55
2018-01-11T08:21:37.748Z,1008.55
2018-01-11T08:22:37.740Z,1008.56
2018-01-11T08:23:37.749Z,1008.59
2018-01-11T08:24:37.727Z,1008.58
2018-01-11T08:25:46.021Z,1008.61
2018-01-11T08:28:31.151Z,1008.66
2018-01-11T08:29:22.077Z,1008.66
2018-01-11T08:32:06.475Z,1008.73
2018-01-11T08:33:06.415Z,1008.72
2018-01-11T08:35:50.812Z,1008.84
2018-01-11T08:36:50.783Z,1008.86
2018-01-11T08:39:35.203Z,1008.88
2018-01-11T08:40:35.135Z,1008.88
2018-01-11T08:43:18.530Z,1008.92
2018-01-11T08:44:18.495Z,1008.98
2018-01-11T08:47:02.420Z,1009.01
2018-01-11T08:48:01.867Z,1009.03
2018-01-11T08:50:45.237Z,1009.04
2018-01-11T08:51:45.246Z,1009.05
2018-01-11T08:54:29.644Z,1009.10
2018-01-11T08:55:29.549Z,1009.09
2018-01-11T08:58:14.006Z,1009.12
2018-01-11T08:59:14.478Z,1009.13
2018-01-11T09:01:57.339Z,1009.16
2018-01-11T09:02:57.874Z,1009.17
2018-01-11T09:05:41.650Z,1009.20
2018-01-11T09:06:41.609Z,1009.24
2018-01-11T09:07:41.606Z,1009.26
2018-01-11T09:08:41.605Z,1009.30
2018-01-11T09:09:41.601Z,1009.28
2018-01-11T09:10:41.579Z,1009.30
2018-01-11T09:11:41.582Z,1009.32
2018-01-11T09:12:41.567Z,1009.35
2018-01-11T09:13:41.559Z,1009.40
2018-01-11T09:14:41.573Z,1009.35
2018-01-11T09:15:41.546Z,1009.42
2018-01-11T09:16:41.536Z,1009.43
2018-01-11T09:17:41.537Z,1009.43
2018-01-11T09:18:41.526Z,1009.46
2018-01-11T09:19:41.575Z,1009.46
2018-01-11T09:20:41.530Z,1009.47
2018-01-11T09:21:41.509Z,1009.46
2018-01-11T09:22:41.502Z,1009.54
2018-01-11T09:23:41.504Z,1009.52
2018-01-11T09:24:41.493Z,1009.53
2018-01-11T09:25:41.545Z,1009.55
2018-01-11T09:26:41.471Z,1009.54
2018-01-11T09:27:41.462Z,1009.55
2018-01-11T09:28:41.451Z,1009.56
2018-01-11T09:29:41.452Z,1009.56
2018-01-11T09:30:41.441Z,1009.55
2018-01-11T09:31:41.434Z,1009.59
2018-01-11T09:32:41.429Z,1009.58
2018-01-11T09:33:41.414Z,1009.64
2018-01-11T09:34:41.406Z,1009.65
2018-01-11T09:35:41.404Z,1009.66
2018-01-11T09:36:41.398Z,1009.66
2018-01-11T09:37:41.389Z,1009.65
2018-01-11T09:38:42.202Z,1009.64
2018-01-11T09:39:41.374Z,1009.67
2018-01-11T09:40:41.376Z,1009.67
2018-01-11T09:41:41.379Z,1009.67
2018-01-11T09:42:41.348Z,1009.70
2018-01-11T09:43:41.352Z,1009.72
2018-01-11T09:44:41.341Z,1009.75
2018-01-11T09:45:41.333Z,1009.74
2018-01-11T09:46:41.328Z,1009.77
2018-01-11T09:47:41.327Z,1009.76
2018-01-11T09:48:41.318Z,1009.75
2018-01-11T09:49:41.304Z,1009.73
2018-01-11T09:50:41.308Z,1009.74
2018-01-11T09:51:41.299Z,1009.76
2018-01-11T09:52:41.287Z,1009.78
2018-01-11T09:53:41.279Z,1009.78
2018-01-11T09:54:41.271Z,1009.76
2018-01-11T09:55:41.256Z,1009.81
2018-01-11T09:56:41.260Z,1009.81
2018-01-11T09:57:41.252Z,1009.78
2018-01-11T09:58:41.241Z,1009.83
2018-01-11T09:59:41.241Z,1009.82
2018-01-11T10:00:41.236Z,1009.84
2018-01-11T10:01:41.232Z,1009.87
2018-01-11T10:02:41.223Z,1009.83
2018-01-11T10:03:41.215Z,1009.89
2018-01-11T10:04:41.209Z,1009.88
2018-01-11T10:05:41.203Z,1009.91
2018-01-11T10:06:41.201Z,1009.90
2018-01-11T10:07:41.189Z,1009.94
2018-01-11T10:08:41.187Z,1009.91
2018-01-11T10:09:41.179Z,1009.94
2018-01-11T10:10:41.171Z,1009.95
2018-01-11T10:11:41.162Z,1009.98
2018-01-11T10:12:41.151Z,1009.98
2018-01-11T10:13:41.161Z,1009.96
2018-01-11T10:14:41.141Z,1009.94
2018-01-11T10:15:41.141Z,1009.95
2018-01-11T10:16:41.142Z,1009.96
2018-01-11T10:17:41.130Z,1009.94
2018-01-11T10:18:41.119Z,1009.94
2018-01-11T10:19:41.118Z,1009.91
2018-01-11T10:20:41.722Z,1009.93
2018-01-11T10:21:41.111Z,1009.92
2018-01-11T10:22:41.095Z,1009.93
2018-01-11T10:23:41.095Z,1009.93
2018-01-11T10:24:41.087Z,1009.93
2018-01-11T10:25:41.088Z,1009.94
2018-01-11T10:26:41.071Z,1009.92
2018-01-11T10:27:41.075Z,1009.91
2018-01-11T10:28:41.052Z,1009.90
2018-01-11T10:29:41.062Z,1009.97
2018-01-11T10:30:41.054Z,1009.93
2018-01-11T10:31:41.046Z,1009.96
2018-01-11T10:32:41.040Z,1009.97
2018-01-11T10:33:41.035Z,1009.99
2018-01-11T10:34:41.025Z,1009.96
2018-01-11T10:35:41.020Z,1009.97
2018-01-11T10:36:41.005Z,1009.97
2018-01-11T10:37:41.725Z,1009.96
2018-01-11T10:38:41.004Z,1009.93
2018-01-11T10:39:40.989Z,1009.97
2018-01-11T10:40:40.991Z,1010.02
2018-01-11T10:41:40.989Z,1009.98
2018-01-11T10:42:40.994Z,1010.00
2018-01-11T10:43:40.973Z,1010.03
2018-01-11T10:44:41.721Z,1010.00
2018-01-11T10:45:40.963Z,1009.96
2018-01-11T10:46:40.963Z,1010.04
2018-01-11T10:47:40.946Z,1010.05
2018-01-11T10:48:40.943Z,1010.00
2018-01-11T10:49:40.941Z,1010.03
2018-01-11T10:50:40.934Z,1010.05
2018-01-11T10:51:40.936Z,1010.06
2018-01-11T10:52:40.921Z,1010.06
2018-01-11T10:53:40.905Z,1010.07
2018-01-11T10:54:40.908Z,1010.07
2018-01-11T10:55:40.891Z,1010.09
2018-01-11T10:56:41.742Z,1010.09
2018-01-11T10:57:40.897Z,1010.08
2018-01-11T10:58:41.732Z,1010.06
2018-01-11T10:59:40.869Z,1010.05
2018-01-11T11:00:40.871Z,1010.03
2018-01-11T11:01:40.870Z,1010.05
2018-01-11T11:02:41.734Z,1010.02
2018-01-11T11:03:41.739Z,1010.07
2018-01-11T11:04:40.871Z,1010.06
2018-01-11T11:05:40.852Z,1010.06
2018-01-11T11:06:40.851Z,1010.11
2018-01-11T11:07:40.836Z,1010.06
2018-01-11T11:07:52.847Z,1010.09
2018-01-11T11:09:40.815Z,1010.09
2018-01-11T11:10:40.806Z,1010.05
2018-01-11T11:11:40.808Z,1010.10
2018-01-11T11:12:40.811Z,1010.10
2018-01-11T11:13:40.814Z,1010.11
2018-01-11T11:14:40.795Z,1010.11
2018-01-11T11:15:40.786Z,1010.09
2018-01-11T11:16:40.803Z,1010.12
2018-01-11T11:17:40.781Z,1010.10
2018-01-11T11:18:43.752Z,1010.09
2018-01-11T11:19:40.767Z,1010.13
2018-01-11T11:20:41.744Z,1010.13
2018-01-11T11:21:40.749Z,1010.10
2018-01-11T11:22:40.745Z,1010.11
2018-01-11T11:23:40.738Z,1010.09
2018-01-11T11:24:41.240Z,1010.07
2018-01-11T11:25:40.734Z,1010.13
2018-01-11T11:26:40.721Z,1010.11
2018-01-11T11:27:40.731Z,1010.12
2018-01-11T11:28:41.245Z,1010.13
2018-01-11T11:29:40.733Z,1010.11
2018-01-11T11:30:40.704Z,1010.12
2018-01-11T11:31:40.693Z,1010.13
2018-01-11T11:32:40.697Z,1010.15
2018-01-11T11:33:40.691Z,1010.15
2018-01-11T11:34:40.686Z,1010.12
2018-01-11T11:35:40.675Z,1010.15
2018-01-11T11:36:40.681Z,1010.15
2018-01-11T11:37:40.669Z,1010.15
2018-01-11T11:38:40.664Z,1010.12
2018-01-11T11:39:40.663Z,1010.14
2018-01-11T11:40:40.654Z,1010.15
2018-01-11T11:41:40.645Z,1010.19
2018-01-11T11:42:40.642Z,1010.13
2018-01-11T11:43:40.633Z,1010.16
2018-01-11T11:44:40.640Z,1010.10
2018-01-11T11:45:40.622Z,1010.13
2018-01-11T11:46:40.620Z,1010.17
2018-01-11T11:47:40.612Z,1010.10
2018-01-11T11:48:40.611Z,1010.13
2018-01-11T11:49:40.604Z,1010.13
2018-01-11T11:50:40.602Z,1010.13
2018-01-11T11:51:40.599Z,1010.14
2018-01-11T11:52:40.582Z,1010.16
2018-01-11T11:53:40.590Z,1010.11
2018-01-11T11:54:40.597Z,1010.11
2018-01-11T11:55:40.585Z,1010.15
2018-01-11T11:56:40.567Z,1010.15
2018-01-11T11:57:40.559Z,1010.15
2018-01-11T11:58:40.561Z,1010.15
2018-01-11T11:59:40.558Z,1010.16
2018-01-11T12:00:40.546Z,1010.12
2018-01-11T12:01:40.541Z,1010.15
2018-01-11T12:02:40.531Z,1010.14
2018-01-11T12:03:40.530Z,1010.11
2018-01-11T12:04:40.535Z,1010.09
2018-01-11T12:05:40.509Z,1010.13
2018-01-11T12:06:40.523Z,1010.15
2018-01-11T12:07:40.517Z,1010.10
2018-01-11T12:08:40.501Z,1010.13
2018-01-11T12:09:40.495Z,1010.13
2018-01-11T12:10:40.483Z,1010.07
2018-01-11T12:11:40.488Z,1010.10
2018-01-11T12:12:40.480Z,1010.14
2018-01-11T12:13:40.469Z,1010.13
2018-01-11T12:14:40.464Z,1010.14
2018-01-11T12:15:40.467Z,1010.15
2018-01-11T12:16:40.474Z,1010.19
2018-01-11T12:17:41.271Z,1010.20
2018-01-11T12:18:40.445Z,1010.22
2018-01-11T12:19:40.443Z,1010.23
2018-01-11T12:20:40.431Z,1010.22
2018-01-11T12:21:40.421Z,1010.21
2018-01-11T12:22:40.416Z,1010.20
2018-01-11T12:23:40.416Z,1010.21
2018-01-11T12:24:40.403Z,1010.26